Time;durP1;ratioP1;P1;durP2;ratioP2;P2;SDS_P1;SDS_P2;PMS_P1;PMS_P2;Temp;Humidity;BMP_temperature;BMP_pressure;BME280_temperature;BME280_humidity;BME280_pressure;Samples;Min_cycle;Max_cycle;Signal;HPM_P1;HPM_P2
2021/12/30 00:02:22;;;;;;;1.25;0.43;;;22.10;99.90;;;;;;5005508;28;20477;-69
2021/12/30 00:04:49;;;;;;;2.22;0.55;;;22.40;99.90;;;;;;5006713;28;20532;-73
2021/12/30 00:07:16;;;;;;;2.42;0.50;;;22.90;99.90;;;;;;5005109;28;20387;-72
2021/12/30 00:09:44;;;;;;;1.55;0.32;;;23.10;99.90;;;;;;5005097;28;20018;-71
2021/12/30 00:12:11;;;;;;;1.80;0.20;;;23.30;99.90;;;;;;4996080;28;20480;-74
2021/12/30 00:14:38;;;;;;;1.85;0.38;;;23.50;99.90;;;;;;5001386;28;20100;-72
2021/12/30 00:17:06;;;;;;;1.45;0.20;;;23.70;99.90;;;;;;5011624;28;20030;-73
2021/12/30 00:19:33;;;;;;;1.33;0.30;;;24.10;99.90;;;;;;4996035;28;20353;-72
2021/12/30 00:22:00;;;;;;;3.30;0.68;;;24.30;99.90;;;;;;4998070;28;20096;-72
2021/12/30 00:24:28;;;;;;;0.63;0.25;;;24.30;99.90;;;;;;4998358;28;20028;-71
2021/12/30 00:26:55;;;;;;;0.68;0.10;;;24.00;99.90;;;;;;4997278;28;20038;-74
2021/12/30 00:29:24;;;;;;;3.40;0.47;;;24.30;99.90;;;;;;4997928;28;20030;-70
2021/12/30 00:31:52;;;;;;;1.73;0.20;;;24.50;99.90;;;;;;5011952;28;20371;-73
2021/12/30 00:34:19;;;;;;;1.00;0.20;;;24.30;99.90;;;;;;5011860;28;20034;-75
2021/12/30 00:36:47;;;;;;;0.98;0.30;;;24.60;99.90;;;;;;5011494;28;20034;-72
2021/12/30 00:39:14;;;;;;;2.17;0.73;;;24.90;99.90;;;;;;5011863;28;20479;-71
2021/12/30 00:41:41;;;;;;;2.05;0.32;;;24.80;99.90;;;;;;5012037;28;20018;-71
2021/12/30 00:44:09;;;;;;;1.70;0.22;;;25.00;99.90;;;;;;5011221;28;20026;-71
2021/12/30 00:46:36;;;;;;;1.40;0.30;;;25.40;99.90;;;;;;5010053;28;20026;-74
2021/12/30 00:49:04;;;;;;;0.32;0.17;;;25.40;99.90;;;;;;4997207;28;20438;-71
2021/12/30 00:51:31;;;;;;;2.22;0.40;;;24.90;99.90;;;;;;4995126;28;20529;-70
2021/12/30 00:53:59;;;;;;;3.53;0.20;;;24.50;99.90;;;;;;4997286;28;20027;-74
2021/12/30 00:56:26;;;;;;;43.50;9.13;;;24.70;99.90;;;;;;4997565;28;20021;-72
2021/12/30 00:58:54;;;;;;;1.13;0.52;;;24.80;99.90;;;;;;4994953;28;20030;-73
2021/12/30 01:01:22;;;;;;;6.75;0.57;;;24.80;99.90;;;;;;4997221;28;20129;-70
2021/12/30 01:03:50;;;;;;;0.85;0.20;;;25.00;99.90;;;;;;5011032;28;20109;-71
2021/12/30 01:06:17;;;;;;;1.85;0.90;;;24.80;99.90;;;;;;5011437;28;20030;-73
2021/12/30 01:08:45;;;;;;;4.07;1.40;;;24.70;99.90;;;;;;5008296;28;20777;-73
2021/12/30 01:11:13;;;;;;;2.22;0.80;;;24.60;99.90;;;;;;4992689;28;20037;-73
2021/12/30 01:13:44;;;;;;;1.92;1.15;;;24.80;99.90;;;;;;4995657;28;20068;-73
2021/12/30 01:16:19;;;;;;;5.45;1.58;;;24.70;99.90;;;;;;4996732;28;20101;-69
2021/12/30 01:19:00;;;;;;;2.20;0.50;;;25.00;99.90;;;;;;4996466;28;20096;-70
2021/12/30 01:21:33;;;;;;;2.60;0.73;;;25.50;99.90;;;;;;4996741;28;20034;-72
2021/12/30 01:24:03;;;;;;;2.13;0.50;;;25.70;99.90;;;;;;4996577;28;20018;-71
2021/12/30 01:26:30;;;;;;;4.15;0.60;;;26.10;99.90;;;;;;5010597;28;20123;-72
2021/12/30 01:28:58;;;;;;;1.50;0.52;;;26.30;99.90;;;;;;5011045;28;20034;-69
2021/12/30 01:31:25;;;;;;;1.83;0.68;;;26.20;99.90;;;;;;5011223;28;20486;-69
2021/12/30 01:33:54;;;;;;;2.60;0.50;;;25.70;99.90;;;;;;4994166;28;20149;-71
2021/12/30 01:36:22;;;;;;;2.10;0.80;;;25.20;99.90;;;;;;4996077;28;20031;-70
2021/12/30 01:38:50;;;;;;;3.58;1.08;;;25.20;99.90;;;;;;4996104;28;20039;-69
2021/12/30 01:41:17;;;;;;;1.80;0.82;;;24.90;99.90;;;;;;4996230;28;20402;-70
2021/12/30 01:43:45;;;;;;;1.08;0.47;;;24.70;99.90;;;;;;4995322;28;20430;-72
2021/12/30 01:46:13;;;;;;;1.27;0.60;;;24.60;99.90;;;;;;4992955;28;20033;-69
2021/12/30 01:48:41;;;;;;;8.35;0.70;;;24.40;99.90;;;;;;4995840;28;20025;-69
2021/12/30 01:51:09;;;;;;;2.13;0.60;;;24.70;99.90;;;;;;4996046;28;20387;-70
2021/12/30 01:53:39;;;;;;;3.97;0.25;;;25.20;99.90;;;;;;4996058;28;20026;-69
2021/12/30 01:56:07;;;;;;;1.58;0.52;;;25.20;99.90;;;;;;4996066;28;20079;-70
2021/12/30 01:58:37;;;;;;;1.42;0.40;;;25.20;99.90;;;;;;4993446;28;20033;-69
2021/12/30 02:01:06;;;;;;;0.82;0.10;;;25.50;99.90;;;;;;4994239;28;20040;-71
2021/12/30 02:03:33;;;;;;;0.95;0.40;;;25.70;99.90;;;;;;4993494;28;20098;-68
2021/12/30 02:06:01;;;;;;;2.35;0.40;;;26.00;99.90;;;;;;4994402;28;20029;-68
2021/12/30 02:08:29;;;;;;;1.52;0.45;;;26.30;99.90;;;;;;4995990;28;20018;-69
2021/12/30 02:10:57;;;;;;;1.45;0.25;;;26.50;99.90;;;;;;4995730;28;20061;-69
2021/12/30 02:13:25;;;;;;;0.98;0.30;;;26.30;99.30;;;;;;4995643;28;20022;-69
2021/12/30 02:16:00;;;;;;;0.85;0.40;;;26.30;98.80;;;;;;4992966;28;20022;-70
2021/12/30 02:18:28;;;;;;;0.98;0.20;;;26.40;99.20;;;;;;4995646;28;20041;-70
2021/12/30 02:20:59;;;;;;;0.45;0.20;;;26.10;98.80;;;;;;4994269;28;20045;-69
2021/12/30 02:23:32;;;;;;;2.60;0.38;;;26.10;99.90;;;;;;4995497;28;20028;-70
2021/12/30 02:26:13;;;;;;;1.15;0.40;;;26.30;99.40;;;;;;4993585;28;20053;-70
2021/12/30 02:28:41;;;;;;;0.32;0.13;;;26.50;98.80;;;;;;4995146;28;20620;-69
2021/12/30 02:31:19;;;;;;;0.68;0.40;;;26.70;98.70;;;;;;4995257;28;20475;-69
2021/12/30 02:33:47;;;;;;;2.47;0.30;;;26.90;98.20;;;;;;4995287;28;20037;-70
2021/12/30 02:36:18;;;;;;;1.98;0.28;;;26.60;98.50;;;;;;4993011;28;20161;-69
2021/12/30 02:38:46;;;;;;;0.90;0.28;;;26.00;99.10;;;;;;4995044;28;20038;-70
2021/12/30 02:41:18;;;;;;;2.30;0.35;;;26.30;99.90;;;;;;4992803;28;20029;-69
2021/12/30 02:43:48;;;;;;;1.83;0.40;;;26.30;99.90;;;;;;4995041;28;20038;-69
2021/12/30 02:46:20;;;;;;;3.72;0.50;;;26.10;99.90;;;;;;4992333;28;20436;-68
2021/12/30 02:48:52;;;;;;;2.35;0.30;;;26.00;99.90;;;;;;4995043;28;20037;-69
2021/12/30 02:51:20;;;;;;;2.45;0.28;;;25.80;99.90;;;;;;4994777;28;20069;-71
2021/12/30 02:53:49;;;;;;;1.95;0.30;;;25.50;99.90;;;;;;4994871;28;20022;-69
2021/12/30 02:56:17;;;;;;;1.65;0.20;;;25.20;99.90;;;;;;4994664;28;20025;-69
2021/12/30 02:58:44;;;;;;;5.15;0.68;;;25.00;99.90;;;;;;4997779;28;20034;-69
2021/12/30 03:01:24;;;;;;;1.45;0.65;;;24.70;99.90;;;;;;4998717;28;20105;-69
2021/12/30 03:03:52;;;;;;;0.45;0.22;;;24.50;99.90;;;;;;4998633;28;20030;-69
2021/12/30 03:06:20;;;;;;;1.08;0.47;;;24.50;99.90;;;;;;4998546;28;20026;-68
2021/12/30 03:08:49;;;;;;;1.70;0.50;;;24.40;99.90;;;;;;4993716;28;20030;-69
2021/12/30 03:11:18;;;;;;;2.58;0.40;;;24.20;99.90;;;;;;4997559;28;20022;-69
2021/12/30 03:13:47;;;;;;;1.10;0.30;;;24.30;99.90;;;;;;4998292;28;20080;-71
2021/12/30 03:16:24;;;;;;;0.70;0.30;;;24.60;99.90;;;;;;4995737;28;20026;-72
2021/12/30 03:18:52;;;;;;;2.40;0.40;;;25.00;99.90;;;;;;5014316;28;20025;-70
2021/12/30 03:21:22;;;;;;;2.80;0.38;;;25.00;99.90;;;;;;5013396;28;20220;-71
2021/12/30 03:23:53;;;;;;;2.50;0.28;;;24.50;99.90;;;;;;5014225;28;20018;-69
2021/12/30 03:26:21;;;;;;;1.05;0.20;;;24.30;99.90;;;;;;5013764;28;20054;-70
2021/12/30 03:28:50;;;;;;;7.90;0.63;;;24.70;99.90;;;;;;4998322;28;20021;-69
2021/12/30 03:31:20;;;;;;;0.95;0.30;;;25.30;99.90;;;;;;4997897;28;20018;-70
2021/12/30 03:33:49;;;;;;;1.92;0.47;;;25.90;99.90;;;;;;4997934;28;20517;-70
2021/12/30 03:36:18;;;;;;;2.53;0.45;;;26.30;99.90;;;;;;4997288;28;20028;-70
2021/12/30 03:38:49;;;;;;;1.85;0.63;;;26.30;99.90;;;;;;4997615;28;20029;-71
2021/12/30 03:41:20;;;;;;;2.10;0.20;;;26.20;99.90;;;;;;4995442;28;20491;-70
2021/12/30 03:43:48;;;;;;;2.17;0.63;;;26.30;99.90;;;;;;4997614;28;20105;-71
2021/12/30 03:46:15;;;;;;;1.70;0.65;;;26.40;99.90;;;;;;4993813;28;20495;-73
2021/12/30 03:48:44;;;;;;;1.92;0.40;;;26.40;99.90;;;;;;4997388;28;20022;-68
2021/12/30 03:51:21;;;;;;;1.08;0.40;;;26.70;99.90;;;;;;4997413;28;20027;-71
2021/12/30 03:53:51;;;;;;;3.42;0.73;;;26.50;99.90;;;;;;4997241;28;20023;-69
2021/12/30 03:56:23;;;;;;;2.88;0.85;;;26.20;99.90;;;;;;4997369;28;20065;-73
2021/12/30 03:58:51;;;;;;;1.70;0.30;;;26.40;99.90;;;;;;4996468;28;20391;-72
2021/12/30 04:01:22;;;;;;;2.45;0.57;;;26.40;99.90;;;;;;4997173;28;20114;-74
2021/12/30 04:03:51;;;;;;;1.65;0.45;;;26.30;99.90;;;;;;4997287;28;20036;-72
2021/12/30 04:06:19;;;;;;;1.30;0.40;;;26.50;99.90;;;;;;4996826;28;20034;-71
2021/12/30 04:08:47;;;;;;;0.77;0.32;;;26.40;99.90;;;;;;4996465;28;20040;-69
2021/12/30 04:11:15;;;;;;;1.38;0.57;;;26.10;99.90;;;;;;4994573;28;20054;-72
2021/12/30 04:13:42;;;;;;;0.82;0.20;;;26.10;99.90;;;;;;4997093;28;20656;-72
2021/12/30 04:16:10;;;;;;;1.02;0.20;;;26.20;99.90;;;;;;4996808;28;20093;-73
2021/12/30 04:18:38;;;;;;;3.85;0.30;;;26.10;99.90;;;;;;4996661;28;20085;-70
2021/12/30 04:21:05;;;;;;;3.22;0.40;;;25.70;99.90;;;;;;4996639;28;20081;-73
2021/12/30 04:23:33;;;;;;;0.40;0.20;;;25.20;99.90;;;;;;4994535;28;20019;-73
2021/12/30 04:26:01;;;;;;;1.65;0.30;;;25.20;99.90;;;;;;4995976;28;20089;-72
2021/12/30 04:28:28;;;;;;;0.88;0.30;;;25.10;99.90;;;;;;4996739;28;20109;-74
2021/12/30 04:30:56;;;;;;;0.40;0.10;;;25.00;99.90;;;;;;4996655;28;20085;-71
2021/12/30 04:33:24;;;;;;;1.35;0.45;;;24.90;99.90;;;;;;4996399;28;20068;-69
2021/12/30 04:35:56;;;;;;;1.58;0.40;;;25.50;99.90;;;;;;4996522;28;20022;-70
2021/12/30 04:38:28;;;;;;;0.98;0.20;;;25.90;99.90;;;;;;4996452;28;20072;-69
2021/12/30 04:40:56;;;;;;;1.65;0.30;;;25.60;99.90;;;;;;4995988;28;20023;-72
2021/12/30 04:43:24;;;;;;;0.50;0.20;;;25.70;99.90;;;;;;4995866;28;20487;-72
2021/12/30 04:45:53;;;;;;;1.23;0.30;;;25.80;99.90;;;;;;5012976;28;20382;-71
2021/12/30 04:48:21;;;;;;;3.70;0.40;;;25.70;99.90;;;;;;5013599;28;20029;-69
2021/12/30 04:50:49;;;;;;;3.00;0.20;;;26.00;99.90;;;;;;5013086;28;20026;-68
2021/12/30 04:53:21;;;;;;;0.90;0.30;;;26.30;99.90;;;;;;5013447;28;20022;-70
2021/12/30 04:55:49;;;;;;;3.47;0.22;;;26.00;99.90;;;;;;5013096;28;20036;-69
2021/12/30 04:58:17;;;;;;;4.93;0.85;;;26.00;99.90;;;;;;5010830;28;20391;-69
2021/12/30 05:00:46;;;;;;;1.30;0.28;;;26.20;99.90;;;;;;4998730;28;20048;-70
2021/12/30 05:03:15;;;;;;;1.15;0.17;;;26.50;99.90;;;;;;5000955;28;20018;-70
2021/12/30 05:05:46;;;;;;;0.65;0.35;;;26.10;99.90;;;;;;5002562;28;20022;-70
2021/12/30 05:08:16;;;;;;;2.80;0.63;;;25.50;99.90;;;;;;5001055;28;20014;-69
2021/12/30 05:10:44;;;;;;;1.88;0.20;;;25.60;99.90;;;;;;5002846;28;20028;-73
2021/12/30 05:13:14;;;;;;;0.98;0.30;;;25.70;99.90;;;;;;5003435;28;20068;-71
2021/12/30 05:15:43;;;;;;;1.05;0.20;;;25.80;99.90;;;;;;5005126;28;20082;-74
2021/12/30 05:18:13;;;;;;;2.92;0.32;;;25.80;99.90;;;;;;5003592;28;20097;-69
2021/12/30 05:20:42;;;;;;;0.70;0.20;;;25.70;99.90;;;;;;5003705;28;20084;-72
2021/12/30 05:23:10;;;;;;;0.90;0.10;;;25.50;99.90;;;;;;5005371;28;20021;-71
2021/12/30 05:25:38;;;;;;;0.80;0.20;;;25.30;99.90;;;;;;5003695;28;20058;-70
2021/12/30 05:28:06;;;;;;;3.30;0.32;;;25.20;99.90;;;;;;5003773;28;20084;-74
2021/12/30 05:30:33;;;;;;;0.65;0.28;;;25.10;99.90;;;;;;5000726;28;20064;-73
2021/12/30 05:33:01;;;;;;;1.35;0.22;;;25.10;99.90;;;;;;5004302;28;20053;-70
2021/12/30 05:35:29;;;;;;;3.20;0.40;;;25.10;99.90;;;;;;5005215;28;20030;-71
2021/12/30 05:37:57;;;;;;;3.38;0.50;;;25.10;99.90;;;;;;5003777;28;20018;-71
2021/12/30 05:40:25;;;;;;;0.38;0.20;;;25.30;99.90;;;;;;5003673;28;20026;-71
2021/12/30 05:42:52;;;;;;;3.47;0.40;;;24.80;99.90;;;;;;5005174;28;20018;-68
2021/12/30 05:45:21;;;;;;;5.78;0.20;;;24.50;99.90;;;;;;5003984;28;20054;-69
2021/12/30 05:47:51;;;;;;;2.90;0.38;;;24.50;99.90;;;;;;5005372;28;20036;-69
2021/12/30 05:50:24;;;;;;;3.63;0.28;;;24.50;99.90;;;;;;5012991;28;20065;-70
2021/12/30 05:52:52;;;;;;;1.75;0.43;;;24.60;99.90;;;;;;5012835;28;20504;-71
2021/12/30 05:55:21;;;;;;;0.98;0.20;;;24.50;99.90;;;;;;5013076;28;20037;-73
2021/12/30 05:57:50;;;;;;;2.47;0.32;;;24.40;99.90;;;;;;5012942;28;20026;-73
2021/12/30 06:00:19;;;;;;;2.10;0.30;;;24.30;99.90;;;;;;4992143;28;20042;-72
2021/12/30 06:02:47;;;;;;;1.70;0.30;;;24.40;99.90;;;;;;4994223;28;20073;-73
2021/12/30 06:05:16;;;;;;;1.15;0.30;;;24.50;99.90;;;;;;4991582;28;20133;-71
2021/12/30 06:07:44;;;;;;;0.93;0.30;;;24.60;99.90;;;;;;4994201;28;20459;-70
2021/12/30 06:10:12;;;;;;;0.50;0.10;;;24.50;99.90;;;;;;4994018;28;20018;-72
2021/12/30 06:12:43;;;;;;;0.68;0.30;;;24.40;99.90;;;;;;4993980;28;20108;-69
2021/12/30 06:15:11;;;;;;;1.55;0.20;;;24.40;99.90;;;;;;4994040;28;20161;-72
2021/12/30 06:17:39;;;;;;;3.00;0.98;;;24.50;99.90;;;;;;4996563;28;20018;-69
2021/12/30 06:20:11;;;;;;;0.45;0.30;;;24.40;99.90;;;;;;5004401;28;20027;-69
2021/12/30 06:22:40;;;;;;;0.35;0.30;;;24.40;99.90;;;;;;5001364;28;20015;-73
2021/12/30 06:25:08;;;;;;;1.05;0.43;;;24.10;99.90;;;;;;5002477;28;20058;-68
2021/12/30 06:27:36;;;;;;;0.45;0.30;;;24.10;99.90;;;;;;5000104;28;20038;-73
2021/12/30 06:30:05;;;;;;;2.33;0.30;;;24.10;99.90;;;;;;5002998;28;20470;-71
2021/12/30 06:32:33;;;;;;;0.10;0.10;;;24.10;99.90;;;;;;5004006;28;20018;-72
2021/12/30 06:35:01;;;;;;;2.78;0.32;;;24.10;99.90;;;;;;5003255;28;20030;-74
2021/12/30 06:37:30;;;;;;;1.20;0.20;;;24.00;99.90;;;;;;5002336;28;20499;-72
2021/12/30 06:39:58;;;;;;;0.88;0.40;;;24.00;99.90;;;;;;5003666;28;20124;-73
2021/12/30 06:42:26;;;;;;;0.93;0.38;;;24.10;99.90;;;;;;5003889;28;20022;-68
2021/12/30 06:44:53;;;;;;;0.32;0.13;;;24.50;99.90;;;;;;5002121;28;20022;-69
2021/12/30 06:47:21;;;;;;;0.85;0.43;;;25.10;99.90;;;;;;5003284;28;20026;-68
2021/12/30 06:49:49;;;;;;;2.85;0.43;;;25.50;99.90;;;;;;5004394;28;20050;-68
2021/12/30 06:52:16;;;;;;;0.90;0.22;;;25.80;99.90;;;;;;5000171;28;20018;-70
2021/12/30 06:54:44;;;;;;;1.52;0.47;;;26.30;99.90;;;;;;5002707;28;20386;-74
2021/12/30 06:57:13;;;;;;;0.75;0.20;;;26.40;99.90;;;;;;5003968;28;20050;-69
2021/12/30 06:59:41;;;;;;;1.10;0.30;;;26.80;99.90;;;;;;5002868;28;20038;-74
2021/12/30 07:02:08;;;;;;;1.70;0.50;;;26.70;99.90;;;;;;5002220;28;20499;-69
2021/12/30 07:04:38;;;;;;;14.98;5.38;;;26.90;99.90;;;;;;5000007;28;20026;-73
2021/12/30 07:07:05;;;;;;;1.20;0.52;;;26.90;99.90;;;;;;5002601;28;20109;-73
2021/12/30 07:09:33;;;;;;;4.25;0.85;;;26.40;99.90;;;;;;5004030;28;20018;-74
2021/12/30 07:12:01;;;;;;;1.08;0.32;;;26.10;99.90;;;;;;5002862;28;20014;-70
2021/12/30 07:14:29;;;;;;;3.00;0.40;;;25.50;99.90;;;;;;5002210;28;20026;-68
2021/12/30 07:16:57;;;;;;;2.40;0.35;;;25.10;99.90;;;;;;5000050;28;20022;-69
2021/12/30 07:19:25;;;;;;;4.30;0.65;;;24.90;99.90;;;;;;5002553;28;20041;-68
2021/12/30 07:21:52;;;;;;;1.42;0.30;;;24.80;99.90;;;;;;5001341;28;20077;-69
2021/12/30 07:24:21;;;;;;;1.10;0.32;;;24.70;99.90;;;;;;4992765;28;20050;-68
2021/12/30 07:26:50;;;;;;;32.30;5.57;;;24.50;99.90;;;;;;4991170;28;20124;-68
2021/12/30 07:29:18;;;;;;;7.40;0.35;;;24.40;99.90;;;;;;4991595;28;20134;-68
2021/12/30 07:31:46;;;;;;;2.30;0.22;;;24.30;99.90;;;;;;4991550;28;20017;-68
2021/12/30 07:34:14;;;;;;;3.42;0.45;;;24.10;99.90;;;;;;4991450;28;20031;-68
2021/12/30 07:36:42;;;;;;;5.82;0.60;;;24.10;99.90;;;;;;4991400;28;20030;-69
2021/12/30 07:39:10;;;;;;;1.33;0.30;;;24.00;99.90;;;;;;4991504;28;20040;-69
2021/12/30 07:41:38;;;;;;;3.03;0.32;;;24.60;99.90;;;;;;4993499;28;20030;-69
2021/12/30 07:44:06;;;;;;;0.77;0.47;;;25.50;99.90;;;;;;4993783;28;20078;-68
2021/12/30 07:46:34;;;;;;;3.75;0.98;;;25.80;99.90;;;;;;4997015;28;20113;-68
2021/12/30 07:49:02;;;;;;;4.88;0.50;;;26.60;99.90;;;;;;4997189;28;20515;-70
2021/12/30 07:51:30;;;;;;;1.70;0.30;;;26.90;99.90;;;;;;4997198;28;20109;-69
2021/12/30 07:53:58;;;;;;;1.83;0.45;;;27.00;99.90;;;;;;4997028;28;20471;-69
2021/12/30 07:56:26;;;;;;;3.90;0.30;;;26.70;99.90;;;;;;4996826;28;20027;-69
2021/12/30 07:58:53;;;;;;;3.38;0.38;;;25.80;99.90;;;;;;4996947;28;20018;-69
2021/12/30 08:01:21;;;;;;;0.68;0.15;;;24.80;99.90;;;;;;4995428;28;20030;-72
2021/12/30 08:03:48;;;;;;;1.10;0.30;;;24.30;99.90;;;;;;4996714;28;20019;-70
2021/12/30 08:06:16;;;;;;;0.28;0.10;;;23.60;99.90;;;;;;4995593;28;20501;-68
2021/12/30 08:08:44;;;;;;;3.38;0.45;;;23.40;99.90;;;;;;4995643;28;20100;-71
2021/12/30 08:11:12;;;;;;;0.88;0.30;;;23.00;99.90;;;;;;4997030;28;20121;-69
2021/12/30 08:13:40;;;;;;;3.75;0.60;;;22.80;99.90;;;;;;4996686;28;20029;-69
2021/12/30 08:16:07;;;;;;;1.27;0.40;;;22.70;99.90;;;;;;4996733;28;20042;-70
2021/12/30 08:18:35;;;;;;;1.35;0.30;;;22.60;99.90;;;;;;4996678;28;20105;-69
2021/12/30 08:21:04;;;;;;;1.50;0.45;;;22.50;99.90;;;;;;4996557;28;20037;-69
2021/12/30 08:23:31;;;;;;;2.97;0.47;;;22.40;99.90;;;;;;4995926;28;20022;-69
2021/12/30 08:25:59;;;;;;;2.28;0.35;;;22.30;99.90;;;;;;4990928;28;20049;-68
2021/12/30 08:28:27;;;;;;;2.20;0.43;;;22.20;99.90;;;;;;4995958;28;20037;-69
2021/12/30 08:30:55;;;;;;;1.55;0.43;;;22.10;99.90;;;;;;4996132;28;20034;-71
2021/12/30 08:33:23;;;;;;;1.13;0.30;;;22.00;99.90;;;;;;4995826;28;20033;-72
2021/12/30 08:35:51;;;;;;;1.45;0.30;;;22.00;99.90;;;;;;4996127;28;20105;-71
2021/12/30 08:38:19;;;;;;;2.20;0.35;;;21.90;99.90;;;;;;4996041;28;20499;-69
2021/12/30 08:40:47;;;;;;;3.10;0.50;;;21.80;99.90;;;;;;4995698;28;20041;-69
2021/12/30 08:43:18;;;;;;;3.25;0.30;;;21.80;99.90;;;;;;4994408;28;20026;-68
2021/12/30 08:45:48;;;;;;;2.78;0.30;;;21.80;99.90;;;;;;4995630;28;20037;-70
2021/12/30 08:48:16;;;;;;;2.50;0.30;;;21.70;99.90;;;;;;4995874;28;20035;-68
2021/12/30 08:50:44;;;;;;;2.72;0.70;;;21.60;99.90;;;;;;4995802;28;20038;-70
2021/12/30 08:53:12;;;;;;;0.85;0.32;;;21.60;99.90;;;;;;4984874;28;20046;-68
2021/12/30 08:55:40;;;;;;;1.98;0.30;;;21.50;99.90;;;;;;4973858;28;20022;-71
2021/12/30 08:58:08;;;;;;;0.28;0.20;;;21.40;99.90;;;;;;4974396;28;20027;-69
2021/12/30 09:00:41;;;;;;;1.13;0.30;;;21.30;99.90;;;;;;4974351;28;20026;-74
2021/12/30 09:03:09;;;;;;;2.30;0.32;;;21.30;99.90;;;;;;4974313;28;20058;-70
2021/12/30 09:05:37;;;;;;;4.05;0.40;;;21.20;99.90;;;;;;4976156;28;20045;-71
2021/12/30 09:08:05;;;;;;;0.65;0.32;;;21.20;99.90;;;;;;4974263;28;20027;-71
2021/12/30 09:10:40;;;;;;;1.35;0.32;;;21.10;99.90;;;;;;4974182;28;20058;-71
2021/12/30 09:13:09;;;;;;;3.97;0.85;;;21.10;99.90;;;;;;4985722;28;20029;-69
2021/12/30 09:15:37;;;;;;;2.97;0.38;;;21.10;99.90;;;;;;4994198;28;20027;-71
2021/12/30 09:18:06;;;;;;;2.53;0.60;;;21.00;99.90;;;;;;4993249;28;20117;-72
2021/12/30 09:20:36;;;;;;;3.28;0.70;;;20.90;99.90;;;;;;4994248;28;20065;-69
2021/12/30 09:23:04;;;;;;;2.35;0.50;;;20.90;99.90;;;;;;4994235;28;20074;-73
2021/12/30 09:25:32;;;;;;;9.05;0.50;;;20.80;99.90;;;;;;4993771;28;20122;-74
2021/12/30 09:28:00;;;;;;;1.02;0.40;;;20.70;99.90;;;;;;4994440;28;20026;-72
2021/12/30 09:30:32;;;;;;;2.55;0.47;;;20.70;99.90;;;;;;4994226;28;20014;-70
2021/12/30 09:33:02;;;;;;;1.05;0.30;;;20.60;99.90;;;;;;4993267;28;20027;-70
2021/12/30 09:35:30;;;;;;;2.60;0.60;;;20.50;99.90;;;;;;4993939;28;20467;-72
2021/12/30 09:37:58;;;;;;;3.97;0.50;;;20.40;99.90;;;;;;4994173;28;20026;-70
2021/12/30 09:40:27;;;;;;;3.42;0.63;;;20.30;99.90;;;;;;4993453;28;20415;-73
2021/12/30 09:43:09;;;;;;;2.67;0.70;;;20.20;99.90;;;;;;4994247;28;20022;-72
2021/12/30 09:45:41;;;;;;;1.85;0.40;;;20.20;99.90;;;;;;4993949;28;20037;-71
2021/12/30 09:48:12;;;;;;;2.22;0.50;;;20.10;99.90;;;;;;4993993;28;20026;-70
2021/12/30 09:50:52;;;;;;;1.40;0.40;;;20.10;99.90;;;;;;4991005;28;20030;-69
2021/12/30 09:53:24;;;;;;;9.48;1.20;;;20.10;99.90;;;;;;4992660;28;20128;-69
2021/12/30 09:55:59;;;;;;;1.70;0.35;;;20.00;99.90;;;;;;4993019;28;20463;-70
2021/12/30 09:58:30;;;;;;;2.80;0.70;;;19.90;99.90;;;;;;4987261;28;20022;-70
2021/12/30 10:01:00;;;;;;;4.32;0.82;;;19.90;99.90;;;;;;4978697;28;20041;-70
2021/12/30 10:03:27;;;;;;;2.17;0.40;;;19.80;99.90;;;;;;4977097;28;20018;-71
2021/12/30 10:06:09;;;;;;;6.53;1.20;;;19.80;99.90;;;;;;4974095;28;20050;-69
2021/12/30 10:08:42;;;;;;;4.22;1.02;;;19.80;99.90;;;;;;4974831;28;20025;-74
2021/12/30 10:11:13;;;;;;;2.10;0.60;;;19.70;99.90;;;;;;4976050;28;20033;-68
2021/12/30 10:13:55;;;;;;;3.03;0.85;;;19.70;99.90;;;;;;4973674;28;20491;-69
2021/12/30 10:16:24;;;;;;;2.30;0.82;;;19.70;99.90;;;;;;4973789;28;20027;-69
2021/12/30 10:19:02;;;;;;;2.17;0.93;;;19.70;99.90;;;;;;4973501;28;20424;-68
2021/12/30 10:21:41;;;;;;;3.03;1.05;;;19.70;99.90;;;;;;4973515;28;20032;-69
2021/12/30 10:24:11;;;;;;;3.20;0.95;;;19.60;99.90;;;;;;4973638;28;20058;-68
2021/12/30 10:27:08;;;;;;;5.35;0.65;;;19.60;99.90;;;;;;4973343;28;20046;-73
2021/12/30 10:29:44;;;;;;;4.97;0.60;;;19.60;99.90;;;;;;4969314;28;20529;-71
2021/12/30 10:32:25;;;;;;;1.67;0.40;;;19.60;99.90;;;;;;4973295;28;20514;-69
2021/12/30 10:35:07;;;;;;;1.35;0.30;;;19.60;99.90;;;;;;4973440;28;21650;-71
2021/12/30 10:37:36;;;;;;;2.95;0.65;;;19.60;99.90;;;;;;4973226;28;20031;-71
2021/12/30 10:40:06;;;;;;;1.45;0.70;;;19.60;99.90;;;;;;4973287;28;20031;-68
2021/12/30 10:42:34;;;;;;;6.55;0.60;;;19.50;99.90;;;;;;4972431;28;20114;-69
2021/12/30 10:45:06;;;;;;;0.30;0.20;;;19.60;99.90;;;;;;4972851;28;20023;-69
2021/12/30 10:47:55;;;;;;;6.90;1.00;;;19.50;99.90;;;;;;4973103;28;20038;-69
2021/12/30 10:50:25;;;;;;;1.98;0.40;;;19.40;99.90;;;;;;4973221;28;20077;-75
2021/12/30 10:52:56;;;;;;;6.60;0.73;;;19.40;99.90;;;;;;4973163;28;20015;-70
2021/12/30 10:55:25;;;;;;;2.28;0.50;;;19.30;99.90;;;;;;4973321;28;20022;-68
2021/12/30 10:57:53;;;;;;;1.20;0.35;;;19.30;99.90;;;;;;4973409;28;20580;-70
2021/12/30 11:00:34;;;;;;;3.67;0.55;;;19.20;99.90;;;;;;4973114;28;20070;-69
2021/12/30 11:03:24;;;;;;;1.58;0.38;;;19.20;99.90;;;;;;4973117;28;20011;-69
2021/12/30 11:06:11;;;;;;;4.80;0.73;;;19.10;99.90;;;;;;4975035;28;20463;-68
2021/12/30 11:08:38;;;;;;;2.65;0.70;;;19.10;99.90;;;;;;4973111;28;20026;-69
2021/12/30 11:11:32;;;;;;;3.60;0.40;;;19.10;99.90;;;;;;4973194;28;20027;-69
2021/12/30 11:14:04;;;;;;;10.68;1.02;;;18.90;99.90;;;;;;4972017;28;20480;-68
2021/12/30 11:16:33;;;;;;;1.65;0.30;;;18.90;99.90;;;;;;4972378;28;20031;-68
2021/12/30 11:19:07;;;;;;;3.38;0.80;;;18.90;99.90;;;;;;4974655;28;20472;-69
2021/12/30 11:21:43;;;;;;;2.28;0.50;;;18.90;99.90;;;;;;4976717;28;20025;-69
2021/12/30 11:24:12;;;;;;;3.50;0.50;;;18.80;99.90;;;;;;4976699;28;20175;-69
2021/12/30 11:26:40;;;;;;;4.13;0.70;;;18.80;99.90;;;;;;4976382;28;20085;-73
2021/12/30 11:29:08;;;;;;;1.70;0.30;;;18.80;99.90;;;;;;4976698;28;20023;-71
2021/12/30 11:31:35;;;;;;;2.05;0.47;;;18.80;99.90;;;;;;4976597;28;20045;-69
2021/12/30 11:34:04;;;;;;;2.55;0.40;;;18.70;99.90;;;;;;4979728;28;20034;-69
2021/12/30 11:36:33;;;;;;;4.45;0.40;;;18.70;99.90;;;;;;4992609;28;20399;-69
2021/12/30 11:39:11;;;;;;;2.75;0.47;;;18.70;99.90;;;;;;4988673;28;20039;-69
2021/12/30 11:41:41;;;;;;;2.42;0.55;;;18.70;99.90;;;;;;4978487;28;20074;-69
2021/12/30 11:44:08;;;;;;;6.53;0.93;;;18.60;99.90;;;;;;4978117;28;20384;-69
2021/12/30 11:46:43;;;;;;;2.15;0.50;;;18.60;99.90;;;;;;4976347;28;20026;-68
2021/12/30 11:49:14;;;;;;;8.43;0.70;;;18.60;99.90;;;;;;4976528;28;20027;-71
2021/12/30 11:51:53;;;;;;;1.73;0.47;;;18.50;99.90;;;;;;4976177;28;20018;-68
2021/12/30 11:54:53;;;;;;;0.95;0.30;;;18.50;99.90;;;;;;4976045;28;20027;-69
2021/12/30 11:57:36;;;;;;;4.55;0.57;;;18.50;99.90;;;;;;4968755;28;20053;-68
2021/12/30 12:00:37;;;;;;;2.88;0.40;;;18.50;99.90;;;;;;4976207;28;20035;-68
2021/12/30 12:03:35;;;;;;;4.57;0.80;;;18.50;99.90;;;;;;4977809;28;20030;-68
2021/12/30 12:08:57;;;;;;;2.85;0.57;;;18.50;99.90;;;;;;4993742;28;20042;-69
2021/12/30 12:11:28;;;;;;;5.30;0.50;;;18.50;99.90;;;;;;5007780;28;20030;-69
2021/12/30 12:14:17;;;;;;;1.88;0.55;;;18.40;99.90;;;;;;5003042;28;20026;-69
2021/12/30 12:16:49;;;;;;;2.03;0.40;;;18.50;99.90;;;;;;4987042;28;20411;-69
2021/12/30 12:19:41;;;;;;;1.42;0.40;;;18.40;99.90;;;;;;4987124;28;20035;-70
2021/12/30 12:22:21;;;;;;;2.85;0.40;;;18.40;99.90;;;;;;4987324;28;20037;-75
2021/12/30 12:24:49;;;;;;;4.20;0.90;;;18.40;99.90;;;;;;4984965;28;20487;-71
2021/12/30 12:27:20;;;;;;;6.28;1.13;;;18.40;99.90;;;;;;4987514;28;20039;-70
2021/12/30 12:29:55;;;;;;;1.58;0.47;;;18.40;99.90;;;;;;4984490;28;20022;-70
2021/12/30 12:32:49;;;;;;;2.30;1.25;;;18.30;99.90;;;;;;4987143;28;20029;-70
2021/12/30 12:35:19;;;;;;;2.80;0.85;;;18.30;99.90;;;;;;4985096;28;20430;-74
2021/12/30 12:37:50;;;;;;;3.90;1.27;;;18.20;99.90;;;;;;4986878;28;20535;-72
2021/12/30 12:40:18;;;;;;;2.92;0.95;;;18.20;99.90;;;;;;4986648;28;20510;-70
2021/12/30 12:42:51;;;;;;;2.72;0.68;;;18.20;99.90;;;;;;4986462;28;20023;-70
2021/12/30 12:45:31;;;;;;;6.68;1.05;;;18.20;99.90;;;;;;4987985;28;20041;-70
2021/12/30 12:48:17;;;;;;;6.13;0.95;;;18.20;99.90;;;;;;4988892;28;20026;-72
2021/12/30 12:51:09;;;;;;;6.28;1.17;;;18.20;99.90;;;;;;4995612;28;20510;-69
2021/12/30 12:53:41;;;;;;;5.43;1.05;;;18.10;99.90;;;;;;4995354;28;20475;-70
2021/12/30 12:56:09;;;;;;;5.97;0.70;;;18.10;99.90;;;;;;4995823;28;20030;-70
2021/12/30 12:58:43;;;;;;;1.38;0.60;;;18.10;99.90;;;;;;4995892;28;20050;-69
2021/12/30 13:01:38;;;;;;;1.73;0.80;;;18.00;99.90;;;;;;4995347;28;20497;-70
2021/12/30 13:04:07;;;;;;;5.25;0.90;;;17.90;99.90;;;;;;4974249;28;20058;-73
2021/12/30 13:06:41;;;;;;;3.85;0.88;;;17.90;99.90;;;;;;4992435;28;20037;-70